Terminal Aerodrome Forecast
Issued by NWS Cleveland, OH

Home | Current Version | Previous Version | Graphics & Text | Print | Product List | Glossary On
Versions: 1 2 3 4 5 6 7 8 9 10 11 12 13 14 15 16 17 18 19 20 21 22 23 24 25
000
FTUS41 KCLE 271500 AAA
TAFERI
TAF AMD
KERI 271508Z 2715/2812 22008KT P6SM SCT035 BKN060
     FM272000 24008KT P6SM VCTS SCT025 OVC035CB
      TEMPO 2722/2802 2SM TSRA OVC025CB
     FM280300 35008KT 6SM -SHRA OVC035=

USA.gov is the U.S. government's official web portal to all federal, state and local government web resources and services.